PILOTS ONLINE: 259    ATC ONLINE: 45

KCDC

Cedar City Regional Airport

Location

IATA CDC
City Cedar City
Country  United States
Latitude 37° 42' 3" N
Longitude 113° 5' 56" W
Elevation 5622 ft
Type Medium Airport

Map

Weather

METAR
2014/10/23 01:53
KCDC 230153Z AUTO 14007KT 10SM CLR 12/00 A3018 RMK AO2 SLP196 T01220000 TSNO
TAF
2014/10/22 18:27
TAF KCDC 221723Z 2218/2318 VRB05KT P6SM FEW120 SCT200

Runways

02/20 8653 ft / 150 ft
08/26 4822 ft / 60 ft

Outbound flights

Callsign Flying to Pilot ATD/STD ETA Aircraft

Inbound flights

Callsign Flying from Pilot ATD ETA Aircraft